Terminal Aerodrome Forecast
Issued by NWS

Home | Current Version | Previous Version | Text Only | Print | Product List | Glossary On
Versions: 1 2 3 4 5 6 7 8 9 10 11 12 13 14 15 16 17 18 19 20 21 22
000
FTUS45 KGJT 221138
TAFVEL
TAF
KVEL 221138Z 2212/2312 27004KT P6SM SCT120 BKN200
     FM221400 VRB03KT P6SM SCT100 BKN150
     FM221800 16005KT P6SM SCT080 OVC120
     FM222100 24006KT P6SM VCSH SCT050 BKN080
     FM230100 04010KT P6SM VCSH BKN050 OVC070=

USA.gov is the U.S. government's official web portal to all federal, state and local government web resources and services.